sensor_id;sensor_type;location;lat;lon;timestamp;P1;durP1;ratioP1;P2;durP2;ratioP2
38166;SDS011;23980;51.902;12.832;2022-07-21T00:03:41;14.65;;;3.13;;
38166;SDS011;23980;51.902;12.832;2022-07-21T00:08:42;10.05;;;3.88;;
38166;SDS011;23980;51.902;12.832;2022-07-21T00:13:43;8.73;;;3.25;;
38166;SDS011;23980;51.902;12.832;2022-07-21T00:18:44;7.63;;;2.88;;
38166;SDS011;23980;51.902;12.832;2022-07-21T00:23:44;11.00;;;4.00;;
38166;SDS011;23980;51.902;12.832;2022-07-21T00:28:45;11.52;;;2.58;;
38166;SDS011;23980;51.902;12.832;2022-07-21T00:33:46;9.95;;;3.10;;
38166;SDS011;23980;51.902;12.832;2022-07-21T00:38:51;13.10;;;3.60;;
38166;SDS011;23980;51.902;12.832;2022-07-21T00:43:51;6.40;;;2.83;;
38166;SDS011;23980;51.902;12.832;2022-07-21T00:48:52;11.20;;;4.03;;
38166;SDS011;23980;51.902;12.832;2022-07-21T00:53:52;8.13;;;3.17;;
38166;SDS011;23980;51.902;12.832;2022-07-21T00:58:53;12.57;;;3.80;;
38166;SDS011;23980;51.902;12.832;2022-07-21T01:03:54;15.43;;;3.38;;
38166;SDS011;23980;51.902;12.832;2022-07-21T01:08:55;8.60;;;3.13;;
38166;SDS011;23980;51.902;12.832;2022-07-21T01:13:56;7.90;;;3.72;;
38166;SDS011;23980;51.902;12.832;2022-07-21T01:18:57;8.48;;;3.20;;
38166;SDS011;23980;51.902;12.832;2022-07-21T01:23:58;9.95;;;2.83;;
38166;SDS011;23980;51.902;12.832;2022-07-21T01:29:00;5.78;;;3.05;;
38166;SDS011;23980;51.902;12.832;2022-07-21T01:34:00;6.63;;;2.95;;
38166;SDS011;23980;51.902;12.832;2022-07-21T01:39:01;12.25;;;3.33;;
38166;SDS011;23980;51.902;12.832;2022-07-21T01:44:21;8.48;;;3.15;;
38166;SDS011;23980;51.902;12.832;2022-07-21T01:49:22;10.75;;;3.47;;
38166;SDS011;23980;51.902;12.832;2022-07-21T01:54:23;13.07;;;3.75;;
38166;SDS011;23980;51.902;12.832;2022-07-21T01:59:24;8.55;;;3.80;;
38166;SDS011;23980;51.902;12.832;2022-07-21T02:04:24;10.50;;;3.40;;
38166;SDS011;23980;51.902;12.832;2022-07-21T02:09:25;8.18;;;3.47;;
38166;SDS011;23980;51.902;12.832;2022-07-21T02:14:25;11.98;;;5.13;;
38166;SDS011;23980;51.902;12.832;2022-07-21T02:19:27;8.95;;;3.85;;
38166;SDS011;23980;51.902;12.832;2022-07-21T02:24:27;17.63;;;4.95;;
38166;SDS011;23980;51.902;12.832;2022-07-21T02:29:28;11.38;;;4.88;;
38166;SDS011;23980;51.902;12.832;2022-07-21T02:34:29;16.75;;;7.95;;
38166;SDS011;23980;51.902;12.832;2022-07-21T02:39:30;14.57;;;7.43;;
38166;SDS011;23980;51.902;12.832;2022-07-21T02:44:31;20.75;;;8.38;;
38166;SDS011;23980;51.902;12.832;2022-07-21T02:49:32;20.85;;;9.82;;
38166;SDS011;23980;51.902;12.832;2022-07-21T02:54:34;17.92;;;9.55;;
38166;SDS011;23980;51.902;12.832;2022-07-21T02:59:35;21.27;;;10.20;;
38166;SDS011;23980;51.902;12.832;2022-07-21T03:04:36;16.17;;;11.68;;
38166;SDS011;23980;51.902;12.832;2022-07-21T03:09:36;21.73;;;12.63;;
38166;SDS011;23980;51.902;12.832;2022-07-21T03:14:37;17.63;;;11.25;;
38166;SDS011;23980;51.902;12.832;2022-07-21T03:19:38;17.50;;;11.40;;
38166;SDS011;23980;51.902;12.832;2022-07-21T03:24:39;16.65;;;11.60;;
38166;SDS011;23980;51.902;12.832;2022-07-21T03:29:43;22.05;;;11.52;;
38166;SDS011;23980;51.902;12.832;2022-07-21T03:34:44;20.05;;;12.00;;
38166;SDS011;23980;51.902;12.832;2022-07-21T03:39:45;22.92;;;12.63;;
38166;SDS011;23980;51.902;12.832;2022-07-21T03:44:50;22.23;;;12.60;;
38166;SDS011;23980;51.902;12.832;2022-07-21T03:49:54;14.90;;;11.80;;
38166;SDS011;23980;51.902;12.832;2022-07-21T03:54:58;21.05;;;11.23;;
38166;SDS011;23980;51.902;12.832;2022-07-21T04:05:19;18.77;;;11.43;;
38166;SDS011;23980;51.902;12.832;2022-07-21T04:10:21;21.63;;;10.32;;
38166;SDS011;23980;51.902;12.832;2022-07-21T04:15:25;21.02;;;11.32;;
38166;SDS011;23980;51.902;12.832;2022-07-21T04:20:26;16.38;;;10.30;;
38166;SDS011;23980;51.902;12.832;2022-07-21T04:25:27;15.52;;;10.10;;
38166;SDS011;23980;51.902;12.832;2022-07-21T04:30:29;14.73;;;9.48;;
38166;SDS011;23980;51.902;12.832;2022-07-21T04:35:30;16.13;;;8.98;;
38166;SDS011;23980;51.902;12.832;2022-07-21T04:40:30;14.40;;;9.07;;
38166;SDS011;23980;51.902;12.832;2022-07-21T04:45:31;16.08;;;8.93;;
38166;SDS011;23980;51.902;12.832;2022-07-21T04:50:32;16.42;;;8.88;;
38166;SDS011;23980;51.902;12.832;2022-07-21T04:55:33;13.38;;;8.80;;
38166;SDS011;23980;51.902;12.832;2022-07-21T05:00:33;12.98;;;7.03;;
38166;SDS011;23980;51.902;12.832;2022-07-21T05:05:34;14.27;;;7.78;;
38166;SDS011;23980;51.902;12.832;2022-07-21T05:10:34;15.82;;;6.93;;
38166;SDS011;23980;51.902;12.832;2022-07-21T05:15:35;12.90;;;7.22;;
38166;SDS011;23980;51.902;12.832;2022-07-21T05:20:36;18.58;;;7.88;;
38166;SDS011;23980;51.902;12.832;2022-07-21T05:25:36;20.38;;;7.57;;
38166;SDS011;23980;51.902;12.832;2022-07-21T05:30:37;19.63;;;8.20;;
38166;SDS011;23980;51.902;12.832;2022-07-21T05:35:38;32.40;;;10.38;;
38166;SDS011;23980;51.902;12.832;2022-07-21T05:40:39;17.38;;;7.13;;
38166;SDS011;23980;51.902;12.832;2022-07-21T05:45:40;11.55;;;6.70;;
38166;SDS011;23980;51.902;12.832;2022-07-21T05:50:41;11.15;;;6.60;;
38166;SDS011;23980;51.902;12.832;2022-07-21T05:55:42;13.07;;;6.60;;
38166;SDS011;23980;51.902;12.832;2022-07-21T06:00:42;14.07;;;7.80;;
38166;SDS011;23980;51.902;12.832;2022-07-21T06:05:43;9.63;;;6.47;;
38166;SDS011;23980;51.902;12.832;2022-07-21T06:10:44;14.43;;;6.82;;
38166;SDS011;23980;51.902;12.832;2022-07-21T06:15:45;15.23;;;7.05;;
38166;SDS011;23980;51.902;12.832;2022-07-21T06:20:45;13.48;;;6.15;;
38166;SDS011;23980;51.902;12.832;2022-07-21T06:25:47;12.77;;;5.85;;
38166;SDS011;23980;51.902;12.832;2022-07-21T06:30:48;13.05;;;6.60;;
38166;SDS011;23980;51.902;12.832;2022-07-21T06:35:49;10.55;;;5.57;;
38166;SDS011;23980;51.902;12.832;2022-07-21T06:40:50;14.13;;;6.47;;
38166;SDS011;23980;51.902;12.832;2022-07-21T06:45:50;14.30;;;6.97;;
38166;SDS011;23980;51.902;12.832;2022-07-21T06:50:51;16.52;;;7.40;;
38166;SDS011;23980;51.902;12.832;2022-07-21T06:55:53;13.27;;;7.43;;
38166;SDS011;23980;51.902;12.832;2022-07-21T07:00:53;15.23;;;6.88;;
38166;SDS011;23980;51.902;12.832;2022-07-21T07:05:54;17.05;;;6.07;;
38166;SDS011;23980;51.902;12.832;2022-07-21T07:10:57;10.10;;;6.25;;
38166;SDS011;23980;51.902;12.832;2022-07-21T07:15:58;11.82;;;6.93;;
38166;SDS011;23980;51.902;12.832;2022-07-21T07:21:07;16.23;;;6.35;;
38166;SDS011;23980;51.902;12.832;2022-07-21T07:26:07;13.33;;;7.00;;
38166;SDS011;23980;51.902;12.832;2022-07-21T07:31:08;15.38;;;7.97;;
38166;SDS011;23980;51.902;12.832;2022-07-21T07:36:08;11.07;;;6.13;;
38166;SDS011;23980;51.902;12.832;2022-07-21T07:41:12;13.35;;;6.00;;
38166;SDS011;23980;51.902;12.832;2022-07-21T07:46:15;11.57;;;6.18;;
38166;SDS011;23980;51.902;12.832;2022-07-21T07:51:19;10.82;;;6.72;;
38166;SDS011;23980;51.902;12.832;2022-07-21T07:56:22;15.05;;;6.63;;
38166;SDS011;23980;51.902;12.832;2022-07-21T08:01:24;11.52;;;6.35;;
38166;SDS011;23980;51.902;12.832;2022-07-21T08:06:25;13.23;;;6.45;;
38166;SDS011;23980;51.902;12.832;2022-07-21T08:11:27;12.65;;;5.55;;
38166;SDS011;23980;51.902;12.832;2022-07-21T08:16:27;10.05;;;5.60;;
38166;SDS011;23980;51.902;12.832;2022-07-21T08:21:30;9.63;;;5.65;;
38166;SDS011;23980;51.902;12.832;2022-07-21T08:26:38;7.28;;;5.55;;
38166;SDS011;23980;51.902;12.832;2022-07-21T08:31:41;11.23;;;6.30;;
38166;SDS011;23980;51.902;12.832;2022-07-21T08:36:42;10.32;;;6.10;;
38166;SDS011;23980;51.902;12.832;2022-07-21T08:41:43;14.07;;;5.97;;
38166;SDS011;23980;51.902;12.832;2022-07-21T08:46:50;8.43;;;5.65;;
38166;SDS011;23980;51.902;12.832;2022-07-21T08:51:52;11.02;;;5.32;;
38166;SDS011;23980;51.902;12.832;2022-07-21T08:56:55;13.15;;;5.47;;
38166;SDS011;23980;51.902;12.832;2022-07-21T09:02:02;13.80;;;5.35;;
38166;SDS011;23980;51.902;12.832;2022-07-21T09:07:08;15.02;;;4.63;;
38166;SDS011;23980;51.902;12.832;2022-07-21T09:12:11;10.35;;;3.97;;
38166;SDS011;23980;51.902;12.832;2022-07-21T09:17:11;12.48;;;4.25;;
38166;SDS011;23980;51.902;12.832;2022-07-21T09:22:16;11.25;;;4.70;;
38166;SDS011;23980;51.902;12.832;2022-07-21T09:27:26;8.43;;;3.38;;
38166;SDS011;23980;51.902;12.832;2022-07-21T09:37:33;10.27;;;3.00;;
38166;SDS011;23980;51.902;12.832;2022-07-21T09:42:44;5.20;;;2.83;;
38166;SDS011;23980;51.902;12.832;2022-07-21T09:47:50;9.50;;;3.28;;
38166;SDS011;23980;51.902;12.832;2022-07-21T09:52:52;5.65;;;3.30;;
38166;SDS011;23980;51.902;12.832;2022-07-21T09:57:55;9.90;;;4.13;;
38166;SDS011;23980;51.902;12.832;2022-07-21T10:03:00;10.27;;;3.80;;
38166;SDS011;23980;51.902;12.832;2022-07-21T10:08:03;10.85;;;4.30;;
38166;SDS011;23980;51.902;12.832;2022-07-21T10:13:05;7.63;;;4.50;;
38166;SDS011;23980;51.902;12.832;2022-07-21T10:18:06;7.68;;;4.50;;
38166;SDS011;23980;51.902;12.832;2022-07-21T10:23:13;14.60;;;4.90;;
38166;SDS011;23980;51.902;12.832;2022-07-21T10:28:22;12.23;;;4.72;;
38166;SDS011;23980;51.902;12.832;2022-07-21T10:38:46;10.35;;;5.35;;
38166;SDS011;23980;51.902;12.832;2022-07-21T10:43:46;9.32;;;5.32;;
38166;SDS011;23980;51.902;12.832;2022-07-21T10:48:47;12.32;;;5.22;;
38166;SDS011;23980;51.902;12.832;2022-07-21T10:53:53;14.20;;;6.05;;
38166;SDS011;23980;51.902;12.832;2022-07-21T10:59:16;9.35;;;6.00;;
38166;SDS011;23980;51.902;12.832;2022-07-21T11:04:16;12.10;;;6.85;;
38166;SDS011;23980;51.902;12.832;2022-07-21T11:09:18;18.40;;;7.93;;
38166;SDS011;23980;51.902;12.832;2022-07-21T11:14:20;13.68;;;7.88;;
38166;SDS011;23980;51.902;12.832;2022-07-21T11:19:43;13.88;;;8.60;;
38166;SDS011;23980;51.902;12.832;2022-07-21T11:29:52;14.98;;;9.20;;
38166;SDS011;23980;51.902;12.832;2022-07-21T11:39:59;11.60;;;8.77;;
38166;SDS011;23980;51.902;12.832;2022-07-21T11:45:00;13.57;;;10.15;;
38166;SDS011;23980;51.902;12.832;2022-07-21T11:50:03;14.93;;;9.30;;
38166;SDS011;23980;51.902;12.832;2022-07-21T11:55:08;17.60;;;10.38;;
38166;SDS011;23980;51.902;12.832;2022-07-21T12:00:12;15.45;;;8.70;;
38166;SDS011;23980;51.902;12.832;2022-07-21T12:05:27;13.10;;;8.82;;
38166;SDS011;23980;51.902;12.832;2022-07-21T12:10:29;14.50;;;8.82;;
38166;SDS011;23980;51.902;12.832;2022-07-21T12:15:31;10.45;;;7.00;;
38166;SDS011;23980;51.902;12.832;2022-07-21T12:20:43;11.90;;;7.55;;
38166;SDS011;23980;51.902;12.832;2022-07-21T12:25:50;11.18;;;7.72;;
38166;SDS011;23980;51.902;12.832;2022-07-21T12:30:57;12.38;;;7.93;;
38166;SDS011;23980;51.902;12.832;2022-07-21T12:41:20;10.18;;;7.43;;
38166;SDS011;23980;51.902;12.832;2022-07-21T12:46:33;14.13;;;8.23;;
38166;SDS011;23980;51.902;12.832;2022-07-21T12:51:54;10.50;;;8.88;;
38166;SDS011;23980;51.902;12.832;2022-07-21T12:56:56;19.70;;;9.18;;
38166;SDS011;23980;51.902;12.832;2022-07-21T13:01:57;11.55;;;8.98;;
38166;SDS011;23980;51.902;12.832;2022-07-21T13:06:59;14.38;;;8.63;;
38166;SDS011;23980;51.902;12.832;2022-07-21T13:12:14;14.23;;;8.85;;
38166;SDS011;23980;51.902;12.832;2022-07-21T13:17:19;13.07;;;9.15;;
38166;SDS011;23980;51.902;12.832;2022-07-21T13:22:26;15.48;;;7.65;;
38166;SDS011;23980;51.902;12.832;2022-07-21T13:27:30;11.25;;;8.85;;
38166;SDS011;23980;51.902;12.832;2022-07-21T13:32:48;10.70;;;7.60;;
38166;SDS011;23980;51.902;12.832;2022-07-21T13:37:51;9.68;;;7.43;;
38166;SDS011;23980;51.902;12.832;2022-07-21T13:42:52;13.70;;;8.45;;
38166;SDS011;23980;51.902;12.832;2022-07-21T13:47:56;8.95;;;6.93;;
38166;SDS011;23980;51.902;12.832;2022-07-21T13:53:03;11.00;;;7.18;;
38166;SDS011;23980;51.902;12.832;2022-07-21T13:58:12;11.65;;;6.65;;
38166;SDS011;23980;51.902;12.832;2022-07-21T14:03:19;11.38;;;8.13;;
38166;SDS011;23980;51.902;12.832;2022-07-21T14:08:23;12.35;;;7.43;;
38166;SDS011;23980;51.902;12.832;2022-07-21T14:13:30;10.23;;;7.45;;
38166;SDS011;23980;51.902;12.832;2022-07-21T14:18:31;14.18;;;8.50;;
38166;SDS011;23980;51.902;12.832;2022-07-21T14:23:32;11.05;;;8.82;;
38166;SDS011;23980;51.902;12.832;2022-07-21T14:28:33;11.75;;;9.85;;
38166;SDS011;23980;51.902;12.832;2022-07-21T14:33:35;32.05;;;14.75;;
38166;SDS011;23980;51.902;12.832;2022-07-21T14:38:36;37.90;;;19.83;;
38166;SDS011;23980;51.902;12.832;2022-07-21T14:43:37;31.10;;;19.60;;
38166;SDS011;23980;51.902;12.832;2022-07-21T14:48:39;17.02;;;13.27;;
38166;SDS011;23980;51.902;12.832;2022-07-21T14:59:02;14.07;;;11.82;;
38166;SDS011;23980;51.902;12.832;2022-07-21T15:14:56;13.70;;;9.35;;
38166;SDS011;23980;51.902;12.832;2022-07-21T15:30:19;13.10;;;10.23;;
38166;SDS011;23980;51.902;12.832;2022-07-21T15:40:59;12.57;;;11.32;;
38166;SDS011;23980;51.902;12.832;2022-07-21T15:46:08;12.10;;;10.60;;
38166;SDS011;23980;51.902;12.832;2022-07-21T15:51:08;12.57;;;10.57;;
38166;SDS011;23980;51.902;12.832;2022-07-21T16:01:48;13.15;;;10.60;;
38166;SDS011;23980;51.902;12.832;2022-07-21T16:07:05;13.77;;;10.45;;
38166;SDS011;23980;51.902;12.832;2022-07-21T16:12:16;10.38;;;9.30;;
38166;SDS011;23980;51.902;12.832;2022-07-21T16:17:18;12.25;;;10.93;;
38166;SDS011;23980;51.902;12.832;2022-07-21T16:22:21;13.48;;;11.73;;
38166;SDS011;23980;51.902;12.832;2022-07-21T16:38:47;11.77;;;10.27;;
38166;SDS011;23980;51.902;12.832;2022-07-21T16:43:47;19.15;;;10.90;;
38166;SDS011;23980;51.902;12.832;2022-07-21T16:48:49;11.88;;;10.43;;
38166;SDS011;23980;51.902;12.832;2022-07-21T16:53:51;14.07;;;9.98;;
38166;SDS011;23980;51.902;12.832;2022-07-21T16:59:05;13.88;;;10.20;;
38166;SDS011;23980;51.902;12.832;2022-07-21T17:04:06;12.45;;;10.57;;
38166;SDS011;23980;51.902;12.832;2022-07-21T17:09:07;11.90;;;10.00;;
38166;SDS011;23980;51.902;12.832;2022-07-21T17:14:08;13.63;;;9.57;;
38166;SDS011;23980;51.902;12.832;2022-07-21T17:19:11;19.23;;;11.57;;
38166;SDS011;23980;51.902;12.832;2022-07-21T17:24:11;12.65;;;11.00;;
38166;SDS011;23980;51.902;12.832;2022-07-21T17:29:12;11.52;;;10.27;;
38166;SDS011;23980;51.902;12.832;2022-07-21T17:34:13;15.23;;;9.93;;
38166;SDS011;23980;51.902;12.832;2022-07-21T17:39:15;14.98;;;10.50;;
38166;SDS011;23980;51.902;12.832;2022-07-21T17:44:15;14.07;;;9.98;;
38166;SDS011;23980;51.902;12.832;2022-07-21T17:49:16;11.23;;;9.95;;
38166;SDS011;23980;51.902;12.832;2022-07-21T17:54:16;11.77;;;10.38;;
38166;SDS011;23980;51.902;12.832;2022-07-21T17:59:17;13.48;;;10.70;;
38166;SDS011;23980;51.902;12.832;2022-07-21T18:04:18;14.55;;;11.07;;
38166;SDS011;23980;51.902;12.832;2022-07-21T18:09:19;13.38;;;10.82;;
38166;SDS011;23980;51.902;12.832;2022-07-21T18:14:19;10.82;;;9.70;;
38166;SDS011;23980;51.902;12.832;2022-07-21T18:19:20;12.57;;;9.95;;
38166;SDS011;23980;51.902;12.832;2022-07-21T18:24:20;8.55;;;7.30;;
38166;SDS011;23980;51.902;12.832;2022-07-21T18:29:22;13.75;;;8.10;;
38166;SDS011;23980;51.902;12.832;2022-07-21T18:34:24;10.05;;;7.60;;
38166;SDS011;23980;51.902;12.832;2022-07-21T18:39:26;8.95;;;6.68;;
38166;SDS011;23980;51.902;12.832;2022-07-21T18:44:26;14.65;;;6.75;;
38166;SDS011;23980;51.902;12.832;2022-07-21T18:49:29;9.20;;;5.90;;
38166;SDS011;23980;51.902;12.832;2022-07-21T18:54:31;15.63;;;6.88;;
38166;SDS011;23980;51.902;12.832;2022-07-21T18:59:32;9.88;;;6.20;;
38166;SDS011;23980;51.902;12.832;2022-07-21T19:04:33;10.85;;;7.10;;
38166;SDS011;23980;51.902;12.832;2022-07-21T19:09:34;9.10;;;6.65;;
38166;SDS011;23980;51.902;12.832;2022-07-21T19:14:34;10.35;;;7.03;;
38166;SDS011;23980;51.902;12.832;2022-07-21T19:19:35;10.68;;;6.78;;
38166;SDS011;23980;51.902;12.832;2022-07-21T19:24:36;9.40;;;7.28;;
38166;SDS011;23980;51.902;12.832;2022-07-21T19:29:37;8.75;;;7.30;;
38166;SDS011;23980;51.902;12.832;2022-07-21T19:34:39;12.25;;;7.20;;
38166;SDS011;23980;51.902;12.832;2022-07-21T19:39:40;12.82;;;7.50;;
38166;SDS011;23980;51.902;12.832;2022-07-21T19:44:41;8.85;;;7.28;;
38166;SDS011;23980;51.902;12.832;2022-07-21T19:49:41;11.73;;;6.88;;
38166;SDS011;23980;51.902;12.832;2022-07-21T19:54:42;10.60;;;7.78;;
38166;SDS011;23980;51.902;12.832;2022-07-21T19:59:43;12.07;;;8.23;;
38166;SDS011;23980;51.902;12.832;2022-07-21T20:04:43;9.80;;;8.02;;
38166;SDS011;23980;51.902;12.832;2022-07-21T20:09:44;11.60;;;7.35;;
38166;SDS011;23980;51.902;12.832;2022-07-21T20:14:47;12.05;;;7.72;;
38166;SDS011;23980;51.902;12.832;2022-07-21T20:19:48;8.23;;;7.10;;
38166;SDS011;23980;51.902;12.832;2022-07-21T20:24:50;9.82;;;8.30;;
38166;SDS011;23980;51.902;12.832;2022-07-21T20:29:53;14.90;;;8.68;;
38166;SDS011;23980;51.902;12.832;2022-07-21T20:34:57;12.55;;;8.98;;
38166;SDS011;23980;51.902;12.832;2022-07-21T20:40:03;9.77;;;8.77;;
38166;SDS011;23980;51.902;12.832;2022-07-21T20:45:04;11.05;;;8.82;;
38166;SDS011;23980;51.902;12.832;2022-07-21T20:50:12;15.32;;;9.88;;
38166;SDS011;23980;51.902;12.832;2022-07-21T20:55:22;11.20;;;8.43;;
38166;SDS011;23980;51.902;12.832;2022-07-21T21:00:22;12.57;;;9.40;;
38166;SDS011;23980;51.902;12.832;2022-07-21T21:05:24;10.98;;;9.80;;
38166;SDS011;23980;51.902;12.832;2022-07-21T21:10:24;10.52;;;9.43;;
38166;SDS011;23980;51.902;12.832;2022-07-21T21:20:34;15.50;;;9.93;;
38166;SDS011;23980;51.902;12.832;2022-07-21T21:25:35;12.60;;;10.75;;
38166;SDS011;23980;51.902;12.832;2022-07-21T21:30:36;14.02;;;10.48;;
38166;SDS011;23980;51.902;12.832;2022-07-21T21:35:37;11.07;;;8.88;;
38166;SDS011;23980;51.902;12.832;2022-07-21T21:40:37;12.57;;;10.63;;
38166;SDS011;23980;51.902;12.832;2022-07-21T21:45:38;18.38;;;12.32;;
38166;SDS011;23980;51.902;12.832;2022-07-21T21:50:41;13.75;;;10.90;;
38166;SDS011;23980;51.902;12.832;2022-07-21T21:55:42;12.85;;;10.73;;
38166;SDS011;23980;51.902;12.832;2022-07-21T22:00:43;13.98;;;11.77;;
38166;SDS011;23980;51.902;12.832;2022-07-21T22:05:44;11.80;;;10.48;;
38166;SDS011;23980;51.902;12.832;2022-07-21T22:10:44;10.88;;;9.38;;
38166;SDS011;23980;51.902;12.832;2022-07-21T22:15:52;13.07;;;10.90;;
38166;SDS011;23980;51.902;12.832;2022-07-21T22:20:52;10.40;;;9.30;;
38166;SDS011;23980;51.902;12.832;2022-07-21T22:25:53;17.40;;;9.90;;
38166;SDS011;23980;51.902;12.832;2022-07-21T22:30:54;11.80;;;8.18;;
38166;SDS011;23980;51.902;12.832;2022-07-21T22:35:54;16.15;;;8.32;;
38166;SDS011;23980;51.902;12.832;2022-07-21T22:40:55;12.02;;;8.10;;
38166;SDS011;23980;51.902;12.832;2022-07-21T22:45:56;8.98;;;6.72;;
38166;SDS011;23980;51.902;12.832;2022-07-21T22:50:57;11.02;;;7.25;;
38166;SDS011;23980;51.902;12.832;2022-07-21T22:55:58;7.88;;;6.35;;
38166;SDS011;23980;51.902;12.832;2022-07-21T23:06:14;8.40;;;6.43;;
38166;SDS011;23980;51.902;12.832;2022-07-21T23:11:15;7.57;;;5.75;;
38166;SDS011;23980;51.902;12.832;2022-07-21T23:16:16;10.32;;;5.57;;
38166;SDS011;23980;51.902;12.832;2022-07-21T23:21:17;7.97;;;5.20;;
38166;SDS011;23980;51.902;12.832;2022-07-21T23:31:38;8.05;;;6.05;;
38166;SDS011;23980;51.902;12.832;2022-07-21T23:36:39;6.63;;;5.50;;
38166;SDS011;23980;51.902;12.832;2022-07-21T23:41:39;7.05;;;5.05;;
38166;SDS011;23980;51.902;12.832;2022-07-21T23:46:40;7.63;;;4.78;;
38166;SDS011;23980;51.902;12.832;2022-07-21T23:51:40;8.07;;;4.47;;
38166;SDS011;23980;51.902;12.832;2022-07-21T23:56:46;8.20;;;3.70;;
